Time;durP1;ratioP1;P1;durP2;ratioP2;P2;SDS_P1;SDS_P2;PMS_P1;PMS_P2;Temp;Humidity;BMP_temperature;BMP_pressure;BME280_temperature;BME280_humidity;BME280_pressure;Samples;Min_cycle;Max_cycle;Signal;HPM_P1;HPM_P2
2023/08/16 00:00:22;;;;;;;;;;;22.90;50.00;;;19.15;96.14;95709.50;5012709;28;19920;-52
2023/08/16 00:02:48;;;;;;;;;;;22.90;50.10;;;19.11;96.14;95706.63;5011854;28;19909;-45
2023/08/16 00:05:14;;;;;;;;;;;22.90;50.90;;;19.10;96.81;95715.84;5012714;28;19936;-48
2023/08/16 00:07:40;;;;;;;;;;;22.80;50.30;;;19.04;98.35;95719.81;5012891;28;19913;-52
2023/08/16 00:10:12;;;;;;;;;;;22.80;50.40;;;18.99;98.92;95713.75;5011273;28;19947;-47
2023/08/16 00:12:38;;;;;;;;;;;22.70;50.50;;;19.01;98.42;95706.13;5012174;28;19948;-50
2023/08/16 00:15:06;;;;;;;;;;;22.80;50.70;;;19.01;98.50;95712.31;5015830;28;19913;-47
2023/08/16 00:17:33;;;;;;;;;;;22.70;50.80;;;18.93;99.66;95713.91;5017527;28;20318;-51
2023/08/16 00:19:59;;;;;;;;;;;22.70;50.90;;;18.90;100.00;95700.25;5012736;28;20287;-47
2023/08/16 00:22:24;;;;;;;;;;;22.70;51.00;;;18.92;99.38;95703.41;5013591;28;19913;-47
2023/08/16 00:24:50;;;;;;;;;;;22.60;51.10;;;18.91;98.89;95697.22;5011945;28;19964;-47
2023/08/16 00:27:16;;;;;;;;;;;22.60;51.20;;;18.87;98.64;95693.59;5011633;28;19919;-49
2023/08/16 00:29:41;;;;;;;;;;;22.60;51.30;;;18.80;98.94;95695.13;5012337;28;19995;-52
2023/08/16 00:32:07;;;;;;;;;;;22.50;51.40;;;18.75;99.36;95696.09;5012651;28;19913;-48
2023/08/16 00:34:34;;;;;;;;;;;22.50;51.50;;;18.67;100.00;95689.50;5010832;28;19948;-47
2023/08/16 00:37:00;;;;;;;;;;;22.40;51.50;;;18.63;100.00;95679.69;5012274;28;20012;-47
2023/08/16 00:39:25;;;;;;;;;;;22.40;51.70;;;18.58;100.00;95683.28;5010943;28;20287;-47
2023/08/16 00:41:52;;;;;;;;;;;22.40;51.80;;;18.55;100.00;95680.44;5011995;28;19909;-47
2023/08/16 00:44:18;;;;;;;;;;;22.30;51.90;;;18.52;100.00;95673.78;5011433;28;20283;-47
2023/08/16 00:46:44;;;;;;;;;;;22.30;52.00;;;18.47;100.00;95673.91;5016849;28;19913;-52
2023/08/16 00:51:47;;;;;;;;;;;22.20;52.20;;;18.39;100.00;95664.69;4970596;28;19922;-48
2023/08/16 00:54:13;;;;;;;;;;;22.10;52.30;;;18.40;100.00;95662.81;4987757;28;19937;-49
2023/08/16 00:56:39;;;;;;;;;;;22.10;52.40;;;18.37;100.00;95658.03;4970873;28;20352;-52
2023/08/16 00:59:05;;;;;;;;;;;22.10;52.50;;;18.33;100.00;95657.03;4973479;28;19917;-47
2023/08/16 01:01:31;;;;;;;;;;;22.10;52.60;;;18.32;100.00;95658.16;4973190;28;20372;-47
2023/08/16 01:03:57;;;;;;;;;;;22.00;52.70;;;18.30;100.00;95658.50;4972638;28;20331;-51
2023/08/16 01:06:23;;;;;;;;;;;22.00;52.90;;;18.30;100.00;95663.06;4973221;28;19914;-48
2023/08/16 01:08:51;;;;;;;;;;;22.00;53.00;;;18.28;100.00;95658.00;4972679;28;19910;-49
2023/08/16 01:11:35;;;;;;;;;;;22.00;53.00;;;18.25;100.00;95656.72;4973373;28;20296;-46
2023/08/16 01:14:24;;;;;;;;;;;22.00;53.10;;;18.22;100.00;95654.63;4963402;28;20320;-49
2023/08/16 01:16:53;;;;;;;;;;;22.00;53.20;;;18.18;100.00;95663.66;4972612;28;19956;-49
2023/08/16 01:19:29;;;;;;;;;;;21.90;53.20;;;18.14;100.00;95649.19;4970946;28;19910;-51
2023/08/16 01:22:49;;;;;;;;;;;21.90;53.30;;;18.10;100.00;95651.72;4987565;28;19916;-50
2023/08/16 01:25:32;;;;;;;;;;;21.90;53.50;;;18.07;100.00;95648.84;4944867;28;20008;-47
2023/08/16 01:28:00;;;;;;;;;;;21.80;53.50;;;18.03;100.00;95646.78;4960199;28;19913;-51
2023/08/16 01:30:29;;;;;;;;;;;21.80;54.30;;;17.99;100.00;95643.13;4971874;28;19910;-47
2023/08/16 01:32:54;;;;;;;;;;;21.80;53.80;;;17.98;100.00;95644.22;4986022;28;19910;-49
2023/08/16 01:35:21;;;;;;;;;;;21.80;53.80;;;17.92;100.00;95650.03;4973054;28;20433;-47
2023/08/16 01:37:47;;;;;;;;;;;21.70;53.90;;;17.91;100.00;95645.78;4973169;28;19913;-47
2023/08/16 01:40:14;;;;;;;;;;;21.70;53.90;;;17.81;100.00;95649.53;4960131;28;19917;-50
2023/08/16 01:42:49;;;;;;;;;;;21.70;54.00;;;17.83;100.00;95652.72;4966273;28;20350;-48
2023/08/16 01:45:18;;;;;;;;;;;21.60;54.60;;;17.83;100.00;95652.72;4966438;28;19924;-47
2023/08/16 01:47:46;;;;;;;;;;;21.60;54.10;;;17.71;100.00;95647.06;4964076;28;19928;-48
2023/08/16 01:50:12;;;;;;;;;;;21.60;54.80;;;17.76;100.00;95653.09;4953656;28;21251;-49
2023/08/16 01:52:39;;;;;;;;;;;21.50;54.30;;;17.76;100.00;95653.09;4967856;28;19997;-49
2023/08/16 01:55:06;;;;;;;;;;;21.50;54.40;;;17.70;100.00;95653.53;4957403;28;19918;-51
2023/08/16 01:57:32;;;;;;;;;;;21.50;54.40;;;17.63;100.00;95647.81;4963121;28;20284;-50
2023/08/16 01:59:57;;;;;;;;;;;21.50;54.50;;;17.60;100.00;95659.19;4969328;28;19910;-53
2023/08/16 02:02:24;;;;;;;;;;;21.40;54.50;;;17.54;100.00;95653.13;4952521;28;19919;-49
2023/08/16 02:04:50;;;;;;;;;;;21.40;54.60;;;17.47;100.00;95658.16;4965462;28;19917;-49
2023/08/16 02:07:16;;;;;;;;;;;21.30;54.60;;;17.47;100.00;95658.16;4972981;28;19952;-47
2023/08/16 02:09:41;;;;;;;;;;;21.30;54.80;;;17.47;100.00;95653.56;4966807;28;19945;-48
2023/08/16 02:12:08;;;;;;;;;;;21.30;54.90;;;17.43;100.00;95660.66;4973095;28;19910;-49
2023/08/16 02:14:33;;;;;;;;;;;21.30;55.00;;;17.39;100.00;95650.78;4972469;28;19910;-49
2023/08/16 02:16:59;;;;;;;;;;;21.20;55.10;;;17.44;100.00;95658.75;4963103;28;20262;-48
2023/08/16 02:19:25;;;;;;;;;;;21.20;55.10;;;17.41;100.00;95657.47;4972564;28;19945;-54
2023/08/16 02:21:50;;;;;;;;;;;21.20;55.20;;;17.42;100.00;95656.38;4963417;28;19910;-50
2023/08/16 02:24:16;;;;;;;;;;;21.20;55.30;;;17.40;100.00;95655.91;4966510;28;19968;-52
2023/08/16 02:26:42;;;;;;;;;;;21.20;55.40;;;17.35;100.00;95664.88;4953320;28;19957;-51
2023/08/16 02:29:08;;;;;;;;;;;21.20;55.40;;;17.31;100.00;95663.91;4966731;28;19932;-47
2023/08/16 02:31:33;;;;;;;;;;;21.10;55.40;;;17.25;100.00;95654.34;4962583;28;19917;-50
2023/08/16 02:33:59;;;;;;;;;;;21.10;55.50;;;17.19;100.00;95660.94;4968771;28;19917;-47
2023/08/16 02:36:25;;;;;;;;;;;21.10;55.50;;;17.13;100.00;95656.78;4976288;28;20332;-48
2023/08/16 02:38:50;;;;;;;;;;;21.00;55.50;;;17.12;100.00;95652.50;4960381;28;19940;-49
2023/08/16 02:41:16;;;;;;;;;;;21.00;55.60;;;17.10;100.00;95652.78;4965820;28;19964;-47
2023/08/16 02:43:42;;;;;;;;;;;21.00;55.80;;;17.11;100.00;95659.00;4960657;28;19956;-48
2023/08/16 02:46:07;;;;;;;;;;;20.90;55.80;;;17.09;100.00;95658.50;4965017;28;19909;-48
2023/08/16 02:48:33;;;;;;;;;;;20.90;55.90;;;17.06;100.00;95646.44;4960811;28;19910;-53
2023/08/16 02:50:59;;;;;;;;;;;20.90;56.00;;;17.01;100.00;95646.53;4959089;28;19922;-48
2023/08/16 02:53:25;;;;;;;;;;;20.90;56.10;;;16.97;100.00;95642.88;4973864;28;20384;-51
2023/08/16 02:55:50;;;;;;;;;;;20.80;56.00;;;16.95;100.00;95638.88;4956767;28;19968;-48
2023/08/16 02:58:16;;;;;;;;;;;20.80;56.10;;;16.92;100.00;95637.59;4967559;28;19917;-48
2023/08/16 03:00:42;;;;;;;;;;;20.80;56.20;;;16.91;100.00;95638.72;4970397;28;19917;-52
2023/08/16 03:03:08;;;;;;;;;;;20.70;56.30;;;16.91;100.00;95633.31;4959309;28;20303;-48
2023/08/16 03:05:33;;;;;;;;;;;20.70;56.40;;;16.91;100.00;95635.22;4969583;28;20342;-48
2023/08/16 03:07:59;;;;;;;;;;;20.70;56.50;;;16.91;100.00;95633.31;4963827;28;20016;-52
2023/08/16 03:10:25;;;;;;;;;;;20.70;56.60;;;16.90;100.00;95633.66;4961480;28;19956;-53
2023/08/16 03:12:51;;;;;;;;;;;20.70;57.30;;;16.91;100.00;95641.41;4975258;28;20367;-47
2023/08/16 03:15:17;;;;;;;;;;;20.70;56.70;;;16.90;100.00;95633.66;4989877;28;20368;-50
2023/08/16 03:17:43;;;;;;;;;;;20.70;56.80;;;16.92;100.00;95637.59;4975352;28;20407;-47
2023/08/16 03:20:09;;;;;;;;;;;20.70;56.80;;;16.92;100.00;95637.59;4957882;28;20392;-49
2023/08/16 03:22:35;;;;;;;;;;;20.70;56.80;;;16.93;100.00;95631.13;4970532;28;20296;-49
2023/08/16 03:25:01;;;;;;;;;;;20.70;56.90;;;16.90;100.00;95633.66;4957822;28;19911;-49
2023/08/16 03:27:27;;;;;;;;;;;20.70;56.90;;;16.84;100.00;95632.97;4955604;28;19914;-49
2023/08/16 03:29:52;;;;;;;;;;;20.70;56.90;;;16.85;100.00;95637.22;4968793;28;19910;-47
2023/08/16 03:32:18;;;;;;;;;;;20.70;57.00;;;16.85;100.00;95643.41;4956284;28;19910;-46
2023/08/16 03:34:44;;;;;;;;;;;20.70;57.00;;;16.78;100.00;95637.66;4955187;28;19933;-48
2023/08/16 03:37:10;;;;;;;;;;;20.60;57.10;;;16.80;100.00;95640.84;4956061;28;20024;-46
2023/08/16 03:39:36;;;;;;;;;;;20.60;57.10;;;16.80;100.00;95640.84;4960382;28;20074;-47
2023/08/16 03:42:01;;;;;;;;;;;20.60;57.20;;;16.76;100.00;95642.53;4963674;28;20458;-49
2023/08/16 03:44:27;;;;;;;;;;;20.60;57.20;;;16.75;100.00;95648.19;4955602;28;20286;-47
2023/08/16 03:46:53;;;;;;;;;;;20.60;57.30;;;16.72;100.00;95656.84;4971715;28;19917;-47
2023/08/16 03:49:19;;;;;;;;;;;20.60;57.40;;;16.69;100.00;95650.19;4957180;28;20369;-51
2023/08/16 03:51:44;;;;;;;;;;;20.60;57.40;;;16.66;100.00;95646.19;4963507;28;20342;-46
2023/08/16 03:54:10;;;;;;;;;;;20.50;57.40;;;16.65;100.00;95649.19;4970619;28;19936;-47
2023/08/16 03:56:36;;;;;;;;;;;20.60;57.50;;;16.64;100.00;95653.00;4955313;28;19910;-51
2023/08/16 03:59:02;;;;;;;;;;;20.50;57.50;;;16.66;100.00;95656.16;4974595;28;19932;-48
2023/08/16 04:01:28;;;;;;;;;;;20.50;57.60;;;16.65;100.00;95657.28;4963527;28;19925;-47
2023/08/16 04:03:53;;;;;;;;;;;20.50;57.60;;;16.63;100.00;95670.22;4959169;28;19985;-49
2023/08/16 04:06:20;;;;;;;;;;;20.50;57.60;;;16.61;100.00;95670.53;4967905;28;20007;-50
2023/08/16 04:08:46;;;;;;;;;;;20.50;57.70;;;16.56;100.00;95667.13;4956243;28;19917;-49
2023/08/16 04:11:12;;;;;;;;;;;20.50;57.70;;;16.55;100.00;95676.31;4966096;28;19910;-47
2023/08/16 04:13:38;;;;;;;;;;;20.50;57.70;;;16.56;100.00;95672.50;4957040;28;20387;-46
2023/08/16 04:16:03;;;;;;;;;;;20.50;57.80;;;16.54;100.00;95675.50;4954844;28;20021;-47
2023/08/16 04:18:29;;;;;;;;;;;20.40;57.80;;;16.50;100.00;95677.19;4967741;28;20400;-47
2023/08/16 04:20:56;;;;;;;;;;;20.40;57.80;;;16.48;100.00;95683.97;4956320;28;19910;-47
2023/08/16 04:23:23;;;;;;;;;;;20.40;57.90;;;16.49;100.00;95685.56;4970001;28;19910;-48
2023/08/16 04:25:50;;;;;;;;;;;20.40;57.90;;;16.46;100.00;95692.34;4955220;28;20049;-48
2023/08/16 04:28:16;;;;;;;;;;;20.40;58.00;;;16.43;100.00;95691.03;4970415;28;19914;-47
2023/08/16 04:30:41;;;;;;;;;;;20.40;58.00;;;16.40;100.00;95688.16;4963421;28;19910;-47
2023/08/16 04:33:07;;;;;;;;;;;20.40;58.00;;;16.38;100.00;95696.50;4954278;28;19914;-46
2023/08/16 04:35:33;;;;;;;;;;;20.40;58.10;;;16.38;100.00;95696.50;4955006;28;20292;-49
2023/08/16 04:37:59;;;;;;;;;;;20.40;58.10;;;16.38;100.00;95704.56;4954716;28;19910;-47
2023/08/16 04:40:24;;;;;;;;;;;20.40;58.20;;;16.41;100.00;95703.97;4965154;28;19910;-48
2023/08/16 04:42:50;;;;;;;;;;;20.40;58.20;;;16.44;100.00;95705.28;4956149;28;20391;-48
2023/08/16 04:45:16;;;;;;;;;;;20.40;58.20;;;16.47;100.00;95709.25;4958883;28;19956;-47
2023/08/16 04:47:42;;;;;;;;;;;20.40;58.30;;;16.50;100.00;95714.03;4969295;28;19914;-47
2023/08/16 04:50:08;;;;;;;;;;;20.50;58.30;;;16.54;100.00;95712.34;4954783;28;19917;-48
2023/08/16 04:52:37;;;;;;;;;;;20.50;58.30;;;16.57;100.00;95717.91;4968775;28;19913;-49
2023/08/16 04:55:05;;;;;;;;;;;20.60;58.40;;;16.61;100.00;95712.75;4962985;28;19996;-49
2023/08/16 04:57:31;;;;;;;;;;;20.60;58.40;;;16.62;100.00;95717.81;4960213;28;20443;-49
2023/08/16 04:59:56;;;;;;;;;;;20.60;58.40;;;16.67;100.00;95724.97;4973832;28;20012;-47
2023/08/16 05:02:22;;;;;;;;;;;20.60;58.30;;;16.75;100.00;95726.19;4955209;28;19917;-48
2023/08/16 05:04:48;;;;;;;;;;;20.70;58.40;;;16.90;100.00;95720.53;4959908;28;19979;-47
2023/08/16 05:07:14;;;;;;;;;;;20.80;58.40;;;17.09;100.00;95720.41;4967471;28;19914;-48
2023/08/16 05:09:39;;;;;;;;;;;20.90;58.50;;;17.25;100.00;95716.25;4953648;28;19910;-47
2023/08/16 05:12:05;;;;;;;;;;;21.00;58.50;;;17.41;100.00;95718.59;4967211;28;19910;-47
2023/08/16 05:14:31;;;;;;;;;;;21.10;58.40;;;17.52;100.00;95718.06;4954170;28;19913;-47
2023/08/16 05:16:57;;;;;;;;;;;21.30;58.50;;;17.69;100.00;95728.19;4958562;28;19909;-47
2023/08/16 05:19:22;;;;;;;;;;;21.40;58.40;;;17.92;100.00;95728.19;4965525;28;19914;-47
2023/08/16 05:21:48;;;;;;;;;;;21.60;58.40;;;18.15;100.00;95731.69;4968084;28;19910;-47
2023/08/16 05:24:14;;;;;;;;;;;21.90;58.40;;;18.35;100.00;95733.81;4988233;28;19913;-47
2023/08/16 05:26:40;;;;;;;;;;;22.10;58.30;;;18.52;100.00;95737.69;4954754;28;19918;-56
2023/08/16 05:29:05;;;;;;;;;;;22.30;58.20;;;18.72;100.00;95739.84;4965138;28;19917;-47
2023/08/16 05:31:31;;;;;;;;;;;22.60;58.00;;;18.95;100.00;95741.38;4955661;28;19918;-47
2023/08/16 05:33:57;;;;;;;;;;;22.80;57.90;;;19.22;100.00;95747.63;4962938;28;20368;-54
2023/08/16 05:36:28;;;;;;;;;;;23.10;57.70;;;19.50;100.00;95741.94;4953860;28;19916;-47
2023/08/16 05:38:54;;;;;;;;;;;23.40;57.50;;;19.76;100.00;95750.84;4953015;28;20329;-48
2023/08/16 05:41:19;;;;;;;;;;;23.70;57.30;;;19.98;100.00;95751.78;4966510;28;20009;-49
2023/08/16 05:43:45;;;;;;;;;;;24.00;57.00;;;20.24;98.61;95749.81;4962829;28;19933;-49
2023/08/16 05:46:11;;;;;;;;;;;24.30;56.80;;;20.49;97.32;95750.88;4972009;28;19917;-48
2023/08/16 05:48:37;;;;;;;;;;;24.60;56.60;;;20.73;95.05;95754.97;4961503;28;19997;-48
2023/08/16 05:51:02;;;;;;;;;;;24.90;56.30;;;20.94;93.24;95755.81;4954643;28;19977;-48
2023/08/16 05:53:28;;;;;;;;;;;25.10;56.00;;;21.21;92.36;95759.16;4972297;28;20004;-51
2023/08/16 05:55:54;;;;;;;;;;;25.40;55.80;;;21.46;91.09;95760.16;4964914;28;19911;-48
2023/08/16 05:58:20;;;;;;;;;;;25.70;55.70;;;21.71;89.67;95758.34;4965884;28;20008;-47
2023/08/16 06:00:47;;;;;;;;;;;25.90;55.50;;;21.98;87.94;95756.22;4971869;28;20365;-47
2023/08/16 06:03:14;;;;;;;;;;;26.20;55.30;;;22.21;86.21;95759.38;4953625;28;19917;-47
2023/08/16 06:05:39;;;;;;;;;;;26.50;55.10;;;22.37;84.84;95760.31;4953707;28;20291;-50
2023/08/16 06:08:08;;;;;;;;;;;26.70;54.80;;;22.59;83.96;95757.22;4966244;28;19915;-48
2023/08/16 06:10:34;;;;;;;;;;;27.00;54.60;;;22.87;83.58;95754.63;4971271;28;19913;-50
2023/08/16 06:12:59;;;;;;;;;;;27.20;54.40;;;23.13;81.15;95752.72;4957485;28;19910;-51
2023/08/16 06:15:26;;;;;;;;;;;27.50;54.20;;;23.36;79.80;95756.56;4963085;28;19910;-53
2023/08/16 06:17:51;;;;;;;;;;;27.80;54.00;;;23.55;78.50;95755.97;4969708;28;20296;-50
2023/08/16 06:20:17;;;;;;;;;;;28.10;53.80;;;23.74;77.26;95750.72;4957257;28;19916;-48
2023/08/16 06:22:43;;;;;;;;;;;28.40;53.50;;;23.90;75.91;95747.28;4963433;28;19910;-50
2023/08/16 06:25:09;;;;;;;;;;;28.60;53.10;;;24.14;75.85;95752.59;4963691;28;19910;-52
2023/08/16 06:27:36;;;;;;;;;;;28.90;52.80;;;24.19;75.35;95741.50;4981858;28;19922;-48
2023/08/16 06:30:02;;;;;;;;;;;29.10;52.50;;;24.22;75.35;95743.50;4974287;28;19910;-51
2023/08/16 06:32:28;;;;;;;;;;;29.40;52.30;;;24.56;74.13;95749.44;4969696;28;19910;-49
2023/08/16 06:34:54;;;;;;;;;;;29.50;52.10;;;24.71;69.87;95745.16;4969551;28;20307;-51
2023/08/16 06:37:21;;;;;;;;;;;29.80;51.90;;;24.60;70.11;95752.25;4969136;28;19921;-50
2023/08/16 06:39:47;;;;;;;;;;;29.90;51.50;;;24.76;66.04;95752.25;4957535;28;20420;-50
2023/08/16 06:42:13;;;;;;;;;;;30.10;51.10;;;25.08;66.26;95751.13;4969376;28;19913;-48
2023/08/16 06:44:39;;;;;;;;;;;30.20;51.00;;;25.18;65.67;95749.03;4956840;28;19917;-52
2023/08/16 06:47:05;;;;;;;;;;;30.50;50.70;;;25.22;62.14;95747.16;4963712;28;19914;-48
2023/08/16 06:49:31;;;;;;;;;;;30.60;50.40;;;24.99;62.94;95747.00;4962765;28;19941;-49
2023/08/16 06:51:58;;;;;;;;;;;30.70;50.00;;;25.27;60.90;95749.63;5013186;23;19967;-47
2023/08/16 06:54:23;;;;;;;;;;;30.90;49.80;;;25.36;59.64;95758.41;5010007;28;20061;-47
2023/08/16 06:56:49;;;;;;;;;;;31.00;49.50;;;25.66;59.03;95744.22;5003165;28;20004;-48
2023/08/16 06:59:15;;;;;;;;;;;31.20;49.20;;;25.96;58.36;95758.91;5015366;28;19963;-48
2023/08/16 07:01:41;;;;;;;;;;;31.30;48.90;;;26.02;58.14;95749.28;5015029;28;20330;-49
2023/08/16 07:04:07;;;;;;;;;;;31.50;48.70;;;26.30;59.17;95751.78;5014179;28;19955;-50
2023/08/16 07:06:33;;;;;;;;;;;31.70;48.40;;;26.74;56.78;95756.09;5003685;28;19959;-48
2023/08/16 07:08:59;;;;;;;;;;;32.00;48.90;;;27.09;56.21;95757.84;5009327;28;19908;-50
2023/08/16 07:11:25;;;;;;;;;;;32.30;48.00;;;27.40;55.19;95754.03;5007428;28;20276;-49
2023/08/16 07:13:52;;;;;;;;;;;32.60;47.70;;;27.75;54.01;95750.97;4995674;28;20000;-50
2023/08/16 07:16:18;;;;;;;;;;;32.90;47.30;;;28.05;53.06;95755.69;4999898;28;19940;-49
2023/08/16 07:18:44;;;;;;;;;;;33.10;46.90;;;28.43;53.23;95753.78;4999706;28;19920;-52
2023/08/16 07:21:11;;;;;;;;;;;33.50;46.70;;;28.77;51.48;95754.50;5010071;28;19955;-50
2023/08/16 07:23:37;;;;;;;;;;;33.70;46.40;;;28.96;50.97;95758.97;5000936;28;19913;-52
2023/08/16 07:26:03;;;;;;;;;;;34.00;46.00;;;29.11;50.44;95762.63;5007324;28;19916;-51
2023/08/16 07:28:29;;;;;;;;;;;34.30;45.60;;;29.23;50.30;95767.81;4994289;28;19936;-49
2023/08/16 07:30:56;;;;;;;;;;;34.50;45.20;;;29.35;49.48;95766.72;5013878;28;19913;-49
2023/08/16 07:33:22;;;;;;;;;;;34.80;45.50;;;29.30;50.35;95770.59;5017504;28;19962;-51
2023/08/16 07:35:49;;;;;;;;;;;35.00;44.50;;;29.50;50.27;95766.44;5006817;28;20375;-47
2023/08/16 07:38:16;;;;;;;;;;;35.20;44.20;;;29.51;51.23;95759.00;5007474;28;19912;-47
2023/08/16 07:40:48;;;;;;;;;;;35.40;43.90;;;29.82;50.73;95765.06;5021356;28;19913;-48
2023/08/16 07:43:14;;;;;;;;;;;35.60;43.70;;;30.00;50.21;95767.91;5010739;28;20015;-49
2023/08/16 07:45:40;;;;;;;;;;;35.80;43.50;;;29.78;50.73;95762.31;5001010;28;20394;-49
2023/08/16 07:48:06;;;;;;;;;;;36.00;43.20;;;30.10;50.30;95772.66;4999800;28;19922;-49
2023/08/16 07:50:32;;;;;;;;;;;36.10;43.00;;;29.71;49.53;95776.00;5011992;28;19917;-52
2023/08/16 07:52:58;;;;;;;;;;;36.20;42.60;;;29.50;52.93;95773.88;5012232;28;20407;-51
2023/08/16 07:55:30;;;;;;;;;;;36.20;42.40;;;29.65;50.58;95774.78;5013084;28;19909;-47
2023/08/16 07:57:55;;;;;;;;;;;36.30;42.20;;;29.66;50.41;95773.63;5009543;28;19913;-48
2023/08/16 08:00:21;;;;;;;;;;;36.30;42.10;;;30.06;51.44;95783.63;5002445;28;19915;-49
2023/08/16 08:02:48;;;;;;;;;;;36.30;42.00;;;30.43;49.84;95771.63;5012435;28;20371;-49
2023/08/16 08:05:15;;;;;;;;;;;36.50;42.00;;;30.25;48.54;95771.56;5036986;28;19912;-48
2023/08/16 08:07:41;;;;;;;;;;;36.50;41.70;;;30.60;48.32;95776.34;5012856;28;20328;-50
2023/08/16 08:10:07;;;;;;;;;;;36.70;41.60;;;30.87;48.02;95771.31;5011914;28;19913;-51
2023/08/16 08:12:34;;;;;;;;;;;36.80;41.30;;;30.88;47.44;95767.38;5012929;28;20293;-48
2023/08/16 08:14:59;;;;;;;;;;;36.90;41.70;;;31.15;48.19;95775.25;5012189;28;19909;-49
2023/08/16 08:17:25;;;;;;;;;;;37.00;40.90;;;31.43;47.24;95776.44;5009333;28;20422;-49
2023/08/16 08:19:52;;;;;;;;;;;37.10;40.80;;;31.47;45.71;95772.50;5002895;28;20287;-48
2023/08/16 08:22:17;;;;;;;;;;;37.20;40.60;;;31.66;45.80;95771.28;5011922;28;19909;-47
2023/08/16 08:24:43;;;;;;;;;;;37.40;40.50;;;31.67;45.87;95763.81;5013025;28;20024;-47
2023/08/16 08:27:09;;;;;;;;;;;37.50;40.20;;;31.66;45.16;95767.75;5012033;28;19917;-48
2023/08/16 08:29:35;;;;;;;;;;;37.60;40.10;;;31.63;44.48;95761.06;5002546;28;19913;-49
2023/08/16 08:32:01;;;;;;;;;;;37.70;39.90;;;31.75;44.08;95760.66;5008946;28;19909;-48
2023/08/16 08:34:27;;;;;;;;;;;37.90;40.40;;;31.97;44.81;95764.13;5011726;28;19956;-49
2023/08/16 08:36:54;;;;;;;;;;;38.00;39.60;;;32.04;44.03;95760.56;4999382;28;20331;-49
2023/08/16 08:39:21;;;;;;;;;;;38.10;39.30;;;32.08;44.58;95761.34;5011114;28;19963;-53
2023/08/16 08:41:48;;;;;;;;;;;38.30;39.20;;;32.22;43.23;95769.53;4999004;28;19917;-50
2023/08/16 08:44:19;;;;;;;;;;;38.30;38.90;;;32.44;42.77;95770.25;5002954;28;19913;-48
2023/08/16 08:46:46;;;;;;;;;;;38.50;38.80;;;32.87;43.06;95766.41;5008379;28;20136;-48
2023/08/16 08:49:17;;;;;;;;;;;38.70;38.80;;;32.76;42.60;95765.72;5012058;28;20367;-51
2023/08/16 08:51:44;;;;;;;;;;;38.90;38.50;;;31.54;44.67;95769.72;5010889;28;20453;-49
2023/08/16 08:54:11;;;;;;;;;;;39.00;38.10;;;31.71;44.83;95759.06;5024136;28;20335;-49
2023/08/16 08:56:38;;;;;;;;;;;39.00;37.90;;;32.40;43.51;95763.91;5011407;28;19944;-48
2023/08/16 08:59:05;;;;;;;;;;;39.00;37.80;;;32.72;42.64;95763.78;5007307;28;19975;-52
2023/08/16 09:01:37;;;;;;;;;;;39.10;37.80;;;33.12;42.27;95764.28;5002411;28;19952;-48
2023/08/16 09:04:05;;;;;;;;;;;39.20;37.70;;;33.54;41.13;95764.34;5002171;28;19916;-48
2023/08/16 09:06:34;;;;;;;;;;;39.50;37.60;;;33.21;41.40;95763.03;5006879;28;19916;-45
2023/08/16 09:09:00;;;;;;;;;;;39.70;37.30;;;33.02;42.42;95767.13;5000086;28;19936;-48
2023/08/16 09:11:28;;;;;;;;;;;39.70;36.90;;;32.83;41.64;95760.94;4999905;28;20399;-48
2023/08/16 09:13:55;;;;;;;;;;;39.70;36.80;;;33.23;40.72;95755.91;4993214;28;19913;-48
2023/08/16 09:16:21;;;;;;;;;;;39.80;36.70;;;33.75;41.38;95760.56;5023260;28;19914;-47
2023/08/16 09:18:48;;;;;;;;;;;40.00;36.60;;;33.87;40.02;95754.50;5010412;28;19935;-51
2023/08/16 09:21:16;;;;;;;;;;;40.10;36.40;;;33.82;39.49;95754.97;5022652;28;19913;-46
2023/08/16 09:23:43;;;;;;;;;;;40.20;36.20;;;34.03;39.80;95753.94;4991495;28;19909;-49
2023/08/16 09:26:18;;;;;;;;;;;40.40;36.20;;;34.17;39.80;95753.78;5005790;28;20296;-49
2023/08/16 09:28:44;;;;;;;;;;;40.50;35.90;;;34.36;39.72;95749.59;5005955;28;19975;-50
2023/08/16 09:31:10;;;;;;;;;;;40.50;35.70;;;34.29;38.86;95746.94;4999801;28;20466;-48
2023/08/16 09:33:38;;;;;;;;;;;40.60;35.60;;;34.40;38.63;95752.28;5010248;28;19962;-49
2023/08/16 09:36:05;;;;;;;;;;;40.70;35.50;;;34.04;41.16;95747.25;5003570;28;20471;-47
2023/08/16 09:38:34;;;;;;;;;;;40.80;35.40;;;34.19;38.89;95742.28;5005557;28;19909;-47
2023/08/16 09:41:00;;;;;;;;;;;40.80;35.20;;;34.59;37.22;95742.56;5010448;28;20360;-48
2023/08/16 09:43:35;;;;;;;;;;;40.90;35.10;;;34.70;37.75;95737.69;5010400;28;19931;-46
2023/08/16 09:46:03;;;;;;;;;;;41.00;34.90;;;34.95;37.25;95735.31;5011137;28;19912;-49
2023/08/16 09:48:31;;;;;;;;;;;41.30;34.90;;;35.03;37.01;95730.44;4998515;28;19913;-48
2023/08/16 09:51:03;;;;;;;;;;;41.30;34.60;;;35.22;37.22;95728.94;5001595;28;19923;-51
2023/08/16 09:53:32;;;;;;;;;;;41.60;34.40;;;35.78;36.50;95736.66;5011101;28;19976;-50
2023/08/16 09:56:02;;;;;;;;;;;41.80;34.30;;;35.31;35.49;95736.72;5000211;28;19916;-46
2023/08/16 09:58:28;;;;;;;;;;;41.90;34.00;;;35.45;36.00;95725.38;5003078;28;19958;-47
2023/08/16 10:00:55;;;;;;;;;;;42.00;33.80;;;35.29;35.69;95725.25;5011038;28;19909;-49
2023/08/16 10:03:22;;;;;;;;;;;42.10;33.60;;;34.79;37.82;95721.34;4991963;28;20436;-46
2023/08/16 10:05:49;;;;;;;;;;;42.00;33.30;;;35.14;36.63;95714.47;5023229;28;19917;-47
2023/08/16 10:08:17;;;;;;;;;;;42.10;33.30;;;35.60;36.82;95720.38;5006487;28;19917;-48
2023/08/16 10:10:43;;;;;;;;;;;42.10;33.30;;;35.85;36.12;95719.88;5024947;28;19912;-46
2023/08/16 10:13:11;;;;;;;;;;;42.20;33.20;;;36.00;36.70;95712.84;5022063;28;20463;-47
2023/08/16 10:15:42;;;;;;;;;;;42.40;33.10;;;35.82;36.22;95702.16;5023148;28;19952;-46
2023/08/16 10:18:12;;;;;;;;;;;42.40;32.90;;;36.22;36.28;95704.88;5021823;28;20352;-46
2023/08/16 10:20:45;;;;;;;;;;;42.50;32.70;;;36.16;35.91;95700.28;5005006;28;19913;-50
2023/08/16 10:23:16;;;;;;;;;;;42.60;32.50;;;36.55;35.84;95705.00;5025335;28;19916;-48
2023/08/16 10:25:51;;;;;;;;;;;42.60;32.30;;;36.78;34.91;95701.28;4995490;28;19932;-48
2023/08/16 10:28:24;;;;;;;;;;;42.80;32.30;;;36.93;34.26;95696.16;5017365;28;20425;-50
2023/08/16 10:30:56;;;;;;;;;;;42.90;32.30;;;36.50;35.18;95694.38;5005958;28;19996;-48
2023/08/16 10:33:43;;;;;;;;;;;43.10;32.10;;;35.90;35.73;95688.91;5026158;28;19909;-47
2023/08/16 10:36:11;;;;;;;;;;;43.10;32.00;;;36.41;34.91;95688.66;5029414;28;19909;-47
2023/08/16 10:38:40;;;;;;;;;;;43.20;31.90;;;37.01;34.51;95687.25;5010537;28;20837;-47
2023/08/16 10:41:15;;;;;;;;;;;43.40;31.80;;;37.19;34.22;95683.22;5001412;28;20008;-46
2023/08/16 10:43:53;;;;;;;;;;;43.50;31.50;;;37.39;33.35;95678.34;5008312;28;19909;-46
2023/08/16 10:46:37;;;;;;;;;;;43.60;31.40;;;37.02;35.04;95677.72;5010146;28;19948;-46
2023/08/16 10:49:06;;;;;;;;;;;43.60;31.10;;;36.83;34.17;95675.78;5010662;28;19916;-46
2023/08/16 10:51:52;;;;;;;;;;;43.60;30.90;;;37.10;33.93;95669.19;5008083;28;19924;-47
2023/08/16 10:54:30;;;;;;;;;;;43.60;31.00;;;37.20;33.36;95679.22;5000190;28;19955;-47
2023/08/16 10:57:06;;;;;;;;;;;43.80;30.90;;;37.33;33.96;95674.53;5012204;28;20019;-46
2023/08/16 10:59:39;;;;;;;;;;;43.90;30.90;;;37.62;33.38;95677.34;5029256;28;20390;-48
2023/08/16 11:02:17;;;;;;;;;;;44.10;30.90;;;37.90;32.61;95672.19;5002104;28;19917;-46
2023/08/16 11:04:45;;;;;;;;;;;44.30;30.70;;;37.56;33.21;95672.75;5013304;28;20012;-46
2023/08/16 11:07:12;;;;;;;;;;;44.50;30.40;;;37.19;33.66;95672.13;5004227;28;20291;-51
2023/08/16 11:09:39;;;;;;;;;;;44.50;30.20;;;37.48;33.12;95672.16;5012788;28;19984;-51
2023/08/16 11:12:06;;;;;;;;;;;44.50;30.20;;;37.89;33.37;95673.38;5003750;28;19919;-50
2023/08/16 11:14:36;;;;;;;;;;;44.60;30.20;;;38.28;31.98;95672.25;5010822;28;19909;-51
2023/08/16 11:17:03;;;;;;;;;;;44.70;30.70;;;38.30;32.57;95664.25;5009831;28;19916;-52